Date,TemperatureHighF,TemperatureAvgF,TemperatureLowF,DewpointHighF,DewpointAvgF,DewpointLowF,HumidityHigh,HumidityAvg,HumidityLow,PressureMaxIn,PressureMinIn,WindSpeedMaxMPH,WindSpeedAvgMPH,GustSpeedMaxMPH,PrecipitationSumIn
2013-3-1,32.4,25.3,17.8,24.7,17.0,11.6,83,71,57,29.87,29.32,11,1,11,0.00
2013-3-2,37.0,25.3,12.8,13.8,10.6,7.2,86,56,32,30.07,29.86,21,4,21,0.00
2013-3-3,34.3,26.6,20.8,13.1,9.0,5.0,56,47,35,30.42,30.06,28,13,28,0.00
2013-3-4,37.3,29.5,21.5,10.9,8.3,5.6,54,41,28,30.45,30.25,24,8,24,0.00
2013-3-5,39.8,29.7,22.2,18.6,12.2,8.8,70,49,31,30.26,29.92,24,4,24,0.00
2013-3-6,39.5,28.7,18.5,18.6,13.2,9.4,68,53,40,29.93,29.80,23,4,23,0.00
2013-3-7,33.1,30.3,27.4,16.1,12.5,10.7,58,47,42,29.80,29.50,32,10,32,0.00
2013-3-8,43.5,35.6,26.6,28.5,23.2,14.8,81,61,38,29.70,29.53,14,2,14,0.00
2013-3-9,41.6,32.7,28.3,25.9,21.3,14.4,87,64,33,30.03,29.70,9,1,9,0.00
2013-3-10,36.3,30.0,25.0,27.1,21.9,15.8,90,73,49,30.12,30.02,14,2,15,0.02
2013-3-11,36.9,30.1,21.9,19.7,13.0,5.7,87,51,31,30.22,30.12,34,9,34,0.00
2013-3-12,28.1,24.2,20.8,9.9,-3.0,-9.8,46,30,20,30.25,30.01,41,16,41,0.00
2013-3-13,23.7,19.5,14.6,-7.6,-12.8,-18.9,28,23,16,30.01,29.82,39,15,39,0.00
2013-3-14,19.0,14.4,9.5,-3.7,-8.6,-14.2,40,34,27,29.91,29.80,41,19,41,0.00
2013-3-15,23.8,19.4,14.9,-5.6,-9.8,-13.1,39,26,21,29.89,29.69,42,17,42,0.00
2013-3-16,27.8,19.6,12.3,-1.1,-5.6,-11.4,43,32,25,30.04,29.80,29,12,29,0.00
2013-3-17,28.8,16.8,3.7,8.1,0.4,-5.3,67,49,29,30.10,29.99,13,2,13,0.00
2013-3-18,28.7,15.5,-1.2,6.5,-0.3,-6.9,82,53,26,29.99,29.81,13,2,13,0.00
2013-3-19,23.7,19.0,12.1,5.8,-4.5,-12.2,66,36,25,29.84,29.80,27,11,27,0.00
2013-3-20,22.8,15.2,5.1,-5.4,-10.2,-14.4,53,31,23,29.93,29.81,27,9,27,0.00
2013-3-21,26.3,13.8,-0.7,11.0,-7.4,-13.3,74,40,21,30.15,29.93,12,3,14,0.00
2013-3-22,24.3,19.5,15.2,20.5,14.2,9.5,89,79,67,30.11,29.73,14,4,19,0.00
2013-3-23,30.5,26.2,21.5,25.2,22.0,17.1,93,84,65,29.78,29.67,14,3,14,0.01
2013-3-24,33.9,26.7,21.5,22.4,17.0,13.3,85,67,48,29.78,29.48,24,7,24,0.00
2013-3-25,21.9,18.3,8.7,17.9,13.5,2.2,88,81,75,29.62,29.31,16,3,16,0.00
2013-3-26,17.3,8.8,-3.2,3.1,-1.2,-10.7,78,64,46,30.14,29.60,11,2,14,0.00
2013-3-27,26.2,9.8,-8.0,3.0,-7.5,-15.4,76,49,26,30.21,30.14,19,4,19,0.00
2013-3-28,31.9,23.6,15.5,5.7,0.0,-5.1,54,36,27,30.15,29.91,24,9,24,0.00
2013-3-29,37.2,30.9,25.4,17.4,11.7,2.7,54,44,35,29.91,29.81,26,12,29,0.02
2013-3-30,45.2,34.8,27.8,31.0,21.4,15.3,93,59,35,30.18,29.89,18,4,18,0.09
2013-3-31,45.8,34.8,26.5,30.0,22.9,17.4,95,64,35,30.19,30.04,10,2,13,0.00